createdAt,value
2018-11-12T00:00:59.703Z,63.88
2018-11-12T00:02:03.414Z,64.46
2018-11-12T00:03:06.969Z,64.49
2018-11-12T00:04:10.630Z,64.05
2018-11-12T00:05:14.027Z,63.98
2018-11-12T00:06:17.441Z,65.01
2018-11-12T00:07:20.883Z,64.63
2018-11-12T00:08:24.315Z,63.71
2018-11-12T00:09:27.902Z,64.04
2018-11-12T00:10:31.411Z,63.52
2018-11-12T00:11:34.897Z,63.71
2018-11-12T00:12:38.504Z,64.41
2018-11-12T00:13:41.894Z,64.28
2018-11-12T00:14:45.299Z,64.11
2018-11-12T00:15:48.716Z,63.62
2018-11-12T00:16:52.194Z,63.96
2018-11-12T00:17:55.652Z,64.43
2018-11-12T00:18:59.062Z,64.57
2018-11-12T00:20:02.455Z,64.97
2018-11-12T00:21:06.008Z,64.44
2018-11-12T00:22:09.471Z,63.98
2018-11-12T00:23:12.962Z,64.83
2018-11-12T00:24:16.478Z,64.61
2018-11-12T00:25:19.900Z,64.51
2018-11-12T00:26:23.342Z,64.62
2018-11-12T00:27:26.804Z,64.80
2018-11-12T00:28:30.271Z,64.97
2018-11-12T00:29:33.689Z,64.34
2018-11-12T00:30:37.084Z,64.39
2018-11-12T00:31:40.497Z,64.85
2018-11-12T00:32:44.758Z,66.16
2018-11-12T00:33:48.145Z,65.42
2018-11-12T00:34:51.578Z,65.80
2018-11-12T00:35:54.978Z,65.89
2018-11-12T00:36:58.468Z,64.92
2018-11-12T00:38:01.833Z,65.71
2018-11-12T00:39:08.222Z,65.61
2018-11-12T00:40:14.979Z,65.17
2018-11-12T00:41:18.380Z,65.39
2018-11-12T00:42:21.793Z,64.82
2018-11-12T00:43:25.182Z,65.19
2018-11-12T00:44:28.573Z,65.70
2018-11-12T00:45:32.020Z,65.74
2018-11-12T00:46:35.549Z,65.48
2018-11-12T00:47:39.033Z,65.60
2018-11-12T00:48:42.454Z,65.50
2018-11-12T00:49:45.841Z,65.37
2018-11-12T00:50:49.205Z,65.76
2018-11-12T00:51:52.570Z,65.58
2018-11-12T00:52:56.025Z,65.77
2018-11-12T00:53:59.667Z,65.26
2018-11-12T00:55:03.436Z,65.76
2018-11-12T00:56:07.124Z,65.52
2018-11-12T00:57:10.613Z,65.38
2018-11-12T00:58:14.130Z,65.66
2018-11-12T00:59:17.509Z,65.66
2018-11-12T01:00:21.124Z,65.00
2018-11-12T01:01:24.558Z,65.58
2018-11-12T01:02:28.154Z,65.50
2018-11-12T01:03:31.603Z,65.43
2018-11-12T01:04:35.270Z,65.38
2018-11-12T01:05:38.673Z,64.92
2018-11-12T01:06:42.142Z,65.51
2018-11-12T01:07:45.883Z,65.18
2018-11-12T01:08:49.346Z,65.45
2018-11-12T01:09:52.723Z,65.54
2018-11-12T01:10:56.106Z,65.39
2018-11-12T01:11:59.537Z,65.49
2018-11-12T01:13:02.987Z,65.64
2018-11-12T01:14:06.833Z,65.26
2018-11-12T01:15:13.095Z,66.09
2018-11-12T01:16:16.610Z,66.11
2018-11-12T01:17:19.960Z,66.05
2018-11-12T01:18:23.383Z,65.93
2018-11-12T01:19:26.866Z,66.20
2018-11-12T01:20:30.256Z,65.59
2018-11-12T01:21:33.674Z,65.45
2018-11-12T01:22:37.096Z,66.00
2018-11-12T01:23:40.610Z,66.22
2018-11-12T01:24:44.133Z,66.29
2018-11-12T01:25:47.533Z,66.15
2018-11-12T01:26:50.930Z,66.62
2018-11-12T01:27:54.341Z,65.95
2018-11-12T01:28:57.778Z,65.90
2018-11-12T01:30:01.233Z,65.72
2018-11-12T01:31:06.193Z,66.11
2018-11-12T01:32:09.629Z,65.94
2018-11-12T01:33:13.046Z,65.40
2018-11-12T01:34:17.080Z,65.81
2018-11-12T01:35:20.572Z,65.96
2018-11-12T01:36:23.955Z,65.84
2018-11-12T01:37:27.349Z,65.44
2018-11-12T01:38:30.816Z,65.84
2018-11-12T01:39:34.246Z,65.81
2018-11-12T01:40:37.777Z,65.41
2018-11-12T01:41:42.345Z,65.41
2018-11-12T01:42:46.124Z,65.58
2018-11-12T01:43:49.501Z,65.93
2018-11-12T01:44:53.050Z,65.57
2018-11-12T01:45:56.458Z,66.25
2018-11-12T01:46:59.923Z,65.09
2018-11-12T01:48:03.427Z,65.01
2018-11-12T01:49:07.044Z,65.59
2018-11-12T01:50:11.725Z,65.80
2018-11-12T01:51:15.158Z,65.22
2018-11-12T01:52:18.712Z,66.04
2018-11-12T01:53:22.108Z,66.17
2018-11-12T01:54:25.563Z,66.04
2018-11-12T01:55:28.984Z,66.05
2018-11-12T01:56:32.380Z,66.33
2018-11-12T01:57:35.809Z,65.93
2018-11-12T01:58:39.253Z,66.40
2018-11-12T01:59:42.863Z,65.97
2018-11-12T02:00:46.285Z,65.80
2018-11-12T02:01:49.726Z,65.83
2018-11-12T02:02:53.423Z,66.24
2018-11-12T02:03:56.828Z,65.71
2018-11-12T02:05:00.219Z,66.40
2018-11-12T02:06:03.693Z,65.73
2018-11-12T02:07:07.368Z,66.02
2018-11-12T02:08:10.784Z,66.24
2018-11-12T02:09:14.270Z,66.52
2018-11-12T02:10:18.655Z,66.33
2018-11-12T02:11:22.076Z,65.55
2018-11-12T02:12:25.528Z,65.39
2018-11-12T02:13:28.877Z,66.41
2018-11-12T02:14:32.292Z,66.39
2018-11-12T02:15:35.703Z,66.17
2018-11-12T02:16:39.142Z,65.56
2018-11-12T02:17:43.490Z,66.03
2018-11-12T02:18:46.858Z,65.85
2018-11-12T02:19:50.275Z,67.02
2018-11-12T02:20:53.670Z,66.25
2018-11-12T02:21:57.095Z,66.11
2018-11-12T02:23:00.580Z,66.47
2018-11-12T02:24:04.163Z,65.87
2018-11-12T02:25:09.097Z,66.37
2018-11-12T02:26:12.631Z,65.68
2018-11-12T02:27:16.040Z,65.70
2018-11-12T02:28:19.491Z,65.89
2018-11-12T02:29:22.926Z,65.76
2018-11-12T02:30:31.787Z,66.58
2018-11-12T02:31:35.222Z,66.84
2018-11-12T02:32:38.672Z,66.83
2018-11-12T02:33:42.229Z,66.15
2018-11-12T02:34:45.626Z,66.70
2018-11-12T02:35:49.048Z,65.84
2018-11-12T02:36:52.513Z,66.50
2018-11-12T02:37:55.946Z,65.70
2018-11-12T02:38:59.379Z,66.18
2018-11-12T02:40:02.845Z,66.37
2018-11-12T02:41:06.888Z,65.56
2018-11-12T02:42:10.288Z,65.56
2018-11-12T02:43:13.706Z,65.73
2018-11-12T02:44:17.190Z,65.91
2018-11-12T02:45:20.641Z,65.82
2018-11-12T02:46:24.107Z,65.53
2018-11-12T02:47:27.534Z,66.54
2018-11-12T02:48:30.959Z,66.06
2018-11-12T02:49:34.378Z,65.92
2018-11-12T02:50:37.865Z,65.15
2018-11-12T02:51:41.305Z,66.22
2018-11-12T02:52:44.735Z,66.11
2018-11-12T02:53:48.143Z,65.82
2018-11-12T02:54:51.581Z,65.96
2018-11-12T02:55:55.007Z,65.86
2018-11-12T02:56:58.417Z,66.49
2018-11-12T02:58:01.797Z,66.29
2018-11-12T02:59:05.380Z,65.74
2018-11-12T03:00:14.993Z,65.95
2018-11-12T03:01:22.004Z,65.84
2018-11-12T03:02:25.462Z,65.84
2018-11-12T03:03:28.851Z,65.69
2018-11-12T03:04:32.253Z,66.33
2018-11-12T03:05:35.704Z,66.15
2018-11-12T03:06:39.161Z,65.59
2018-11-12T03:07:42.910Z,65.04
2018-11-12T03:08:46.952Z,65.80
2018-11-12T03:09:50.375Z,65.53
2018-11-12T03:10:53.828Z,65.30
2018-11-12T03:11:57.240Z,65.60
2018-11-12T03:13:00.595Z,66.18
2018-11-12T03:14:04.265Z,66.16
2018-11-12T03:15:09.105Z,65.62
2018-11-12T03:16:12.804Z,65.84
2018-11-12T03:17:16.360Z,66.22
2018-11-12T03:18:19.750Z,65.39
2018-11-12T03:19:23.161Z,65.77
2018-11-12T03:20:26.592Z,65.93
2018-11-12T03:21:30.008Z,65.04
2018-11-12T03:22:33.507Z,66.04
2018-11-12T03:23:37.046Z,65.11
2018-11-12T03:24:40.481Z,65.17
2018-11-12T03:25:43.921Z,65.73
2018-11-12T03:26:47.364Z,65.53
2018-11-12T03:27:51.063Z,65.61
2018-11-12T03:28:54.435Z,65.42
2018-11-12T03:29:57.850Z,66.03
2018-11-12T03:31:01.420Z,65.63
2018-11-12T03:32:04.962Z,65.79
2018-11-12T03:33:08.547Z,66.10
2018-11-12T03:34:11.973Z,66.37
2018-11-12T03:35:15.847Z,65.88
2018-11-12T03:36:19.259Z,66.58
2018-11-12T03:37:22.847Z,66.09
2018-11-12T03:38:26.296Z,66.19
2018-11-12T03:39:29.685Z,66.62
2018-11-12T03:40:33.104Z,66.46
2018-11-12T03:41:36.663Z,66.38
2018-11-12T03:42:40.098Z,66.06
2018-11-12T03:43:43.597Z,66.32
2018-11-12T03:44:47.140Z,65.77
2018-11-12T03:45:50.570Z,66.17
2018-11-12T03:46:53.999Z,66.23
2018-11-12T03:47:57.425Z,65.96
2018-11-12T03:49:00.840Z,66.16
2018-11-12T03:50:04.498Z,66.40
2018-11-12T03:51:07.979Z,65.91
2018-11-12T03:52:11.440Z,65.67
2018-11-12T03:53:14.835Z,65.80
2018-11-12T03:54:18.233Z,65.96
2018-11-12T03:55:22.613Z,65.88
2018-11-12T03:56:26.056Z,65.81
2018-11-12T03:57:29.475Z,65.40
2018-11-12T03:58:32.892Z,66.04
2018-11-12T03:59:36.324Z,66.19
2018-11-12T04:00:39.825Z,66.03
2018-11-12T04:01:44.769Z,66.10
2018-11-12T04:02:48.343Z,65.76
2018-11-12T04:03:51.811Z,66.19
2018-11-12T04:04:55.305Z,65.67
2018-11-12T04:05:58.690Z,66.14
2018-11-12T04:07:02.083Z,65.82
2018-11-12T04:08:05.519Z,66.00
2018-11-12T04:09:10.878Z,66.95
2018-11-12T04:10:17.330Z,66.00
2018-11-12T04:11:20.707Z,66.17
2018-11-12T04:12:24.222Z,65.65
2018-11-12T04:13:27.732Z,66.04
2018-11-12T04:14:31.165Z,66.17
2018-11-12T04:15:34.636Z,66.26
2018-11-12T04:16:38.345Z,66.48
2018-11-12T04:17:41.804Z,66.96
2018-11-12T04:18:45.222Z,66.37
2018-11-12T04:19:48.710Z,66.13
2018-11-12T04:20:52.130Z,66.29
2018-11-12T04:21:55.530Z,66.39
2018-11-12T04:23:04.747Z,66.10
2018-11-12T04:24:08.425Z,66.13
2018-11-12T04:25:12.205Z,66.74
2018-11-12T04:26:15.649Z,66.84
2018-11-12T04:27:19.078Z,66.27
2018-11-12T04:28:22.481Z,66.29
2018-11-12T04:29:25.996Z,66.87
2018-11-12T04:30:29.402Z,66.12
2018-11-12T04:31:32.829Z,66.85
2018-11-12T04:32:36.218Z,66.86
2018-11-12T04:33:39.876Z,66.82
2018-11-12T04:34:43.283Z,66.53
2018-11-12T04:35:46.719Z,66.51
2018-11-12T04:36:50.085Z,66.44
2018-11-12T04:37:53.463Z,66.11
2018-11-12T04:38:57.010Z,66.91
2018-11-12T04:40:00.409Z,67.17
2018-11-12T04:41:03.836Z,66.91
2018-11-12T04:42:07.273Z,66.56
2018-11-12T04:43:10.674Z,66.57
2018-11-12T04:44:14.071Z,67.11
2018-11-12T04:45:18.718Z,66.87
2018-11-12T04:46:22.121Z,66.34
2018-11-12T04:47:25.552Z,67.21
2018-11-12T04:48:28.974Z,67.63
2018-11-12T04:49:32.422Z,67.20
2018-11-12T04:50:35.880Z,67.18
2018-11-12T04:51:39.371Z,66.41
2018-11-12T04:52:42.992Z,67.58
2018-11-12T04:53:46.386Z,66.81
2018-11-12T04:54:49.780Z,67.25
2018-11-12T04:55:53.202Z,66.82
2018-11-12T04:56:56.631Z,66.96
2018-11-12T04:58:00.207Z,67.17
2018-11-12T04:59:03.623Z,67.19
2018-11-12T05:00:10.214Z,67.03
2018-11-12T05:01:13.744Z,66.94
2018-11-12T05:02:17.148Z,66.72
2018-11-12T05:03:20.584Z,66.34
2018-11-12T05:04:24.008Z,67.08
2018-11-12T05:05:28.508Z,66.78
2018-11-12T05:06:31.904Z,66.42
2018-11-12T05:07:35.414Z,66.90
2018-11-12T05:08:38.804Z,66.79
2018-11-12T05:09:42.304Z,66.82
2018-11-12T05:10:45.722Z,66.81
2018-11-12T05:11:49.089Z,66.73
2018-11-12T05:12:53.065Z,66.68
2018-11-12T05:13:56.431Z,66.21
2018-11-12T05:14:59.834Z,66.13
2018-11-12T05:16:03.278Z,66.62
2018-11-12T05:17:06.808Z,66.45
2018-11-12T05:18:10.241Z,66.16
2018-11-12T05:19:13.679Z,66.11
2018-11-12T05:20:21.672Z,66.16
2018-11-12T05:21:25.238Z,66.22
2018-11-12T05:22:28.641Z,66.74
2018-11-12T05:23:32.082Z,66.20
2018-11-12T05:24:35.481Z,66.54
2018-11-12T05:25:39.017Z,66.17
2018-11-12T05:26:42.501Z,66.98
2018-11-12T05:27:45.936Z,67.07
2018-11-12T05:28:49.380Z,66.95
2018-11-12T05:29:52.807Z,67.11
2018-11-12T05:30:56.215Z,67.17
2018-11-12T05:31:59.618Z,66.37
2018-11-12T05:33:03.040Z,66.45
2018-11-12T05:34:07.059Z,66.93
2018-11-12T05:35:10.658Z,66.84
2018-11-12T05:36:14.085Z,67.06
2018-11-12T05:37:17.477Z,66.94
2018-11-12T05:38:20.962Z,66.92
2018-11-12T05:39:24.772Z,67.41
2018-11-12T05:40:29.331Z,66.86
2018-11-12T05:41:32.777Z,67.56
2018-11-12T05:42:36.251Z,66.79
2018-11-12T05:43:39.737Z,67.56
2018-11-12T05:44:43.202Z,66.94
2018-11-12T05:45:46.634Z,66.77
2018-11-12T05:46:50.050Z,67.09
2018-11-12T05:47:53.461Z,66.05
2018-11-12T05:48:56.866Z,67.02
2018-11-12T05:50:00.314Z,66.52
2018-11-12T05:51:03.777Z,66.78
2018-11-12T05:52:07.276Z,67.01
2018-11-12T05:53:10.735Z,66.52
2018-11-12T05:54:14.183Z,66.12
2018-11-12T05:55:19.024Z,66.13
2018-11-12T05:56:22.376Z,66.76
2018-11-12T05:57:26.077Z,66.36
2018-11-12T05:58:29.515Z,66.61
2018-11-12T05:59:33.017Z,66.44
2018-11-12T06:00:37.341Z,66.77
2018-11-12T06:01:40.756Z,65.85
2018-11-12T06:02:44.328Z,66.12
2018-11-12T06:03:47.755Z,65.24
2018-11-12T06:04:51.164Z,65.61
2018-11-12T06:05:54.570Z,65.03
2018-11-12T06:06:58.022Z,65.07
2018-11-12T06:08:01.419Z,64.69
2018-11-12T06:09:06.693Z,65.08
2018-11-12T06:10:15.129Z,65.34
2018-11-12T06:11:18.572Z,65.62
2018-11-12T06:12:22.069Z,65.43
2018-11-12T06:13:25.456Z,65.92
2018-11-12T06:14:28.858Z,65.88
2018-11-12T06:15:32.384Z,66.10
2018-11-12T06:16:36.141Z,65.70
2018-11-12T06:17:40.190Z,65.39
2018-11-12T06:18:43.656Z,65.39
2018-11-12T06:19:47.157Z,65.25
2018-11-12T06:20:50.610Z,65.36
2018-11-12T06:21:54.077Z,65.93
2018-11-12T06:22:57.534Z,65.83
2018-11-12T06:24:01.158Z,65.65
2018-11-12T06:25:05.179Z,66.15
2018-11-12T06:26:09.059Z,65.74
2018-11-12T06:27:12.461Z,65.56
2018-11-12T06:28:15.898Z,66.09
2018-11-12T06:29:19.315Z,65.93
2018-11-12T06:30:24.029Z,65.98
2018-11-12T06:31:27.412Z,65.83
2018-11-12T06:32:30.908Z,65.41
2018-11-12T06:33:34.350Z,65.58
2018-11-12T06:34:37.777Z,65.85
2018-11-12T06:35:41.253Z,66.17
2018-11-12T06:36:44.698Z,65.58
2018-11-12T06:37:49.128Z,65.78
2018-11-12T06:38:53.467Z,66.43
2018-11-12T06:39:56.959Z,65.65
2018-11-12T06:41:00.451Z,66.32
2018-11-12T06:42:04.195Z,65.79
2018-11-12T06:43:07.672Z,65.93
2018-11-12T06:44:11.095Z,66.29
2018-11-12T06:45:17.903Z,65.88
2018-11-12T06:46:21.359Z,65.44
2018-11-12T06:47:25.084Z,65.18
2018-11-12T06:48:28.610Z,64.93
2018-11-12T06:49:32.011Z,64.27
2018-11-12T06:50:35.628Z,63.81
2018-11-12T06:51:39.063Z,62.80
2018-11-12T06:52:42.613Z,62.55
2018-11-12T06:53:46.073Z,62.17
2018-11-12T06:54:49.490Z,62.29
2018-11-12T06:55:52.895Z,62.02
2018-11-12T06:56:56.369Z,61.42
2018-11-12T06:57:59.764Z,61.95
2018-11-12T06:59:03.305Z,61.64
2018-11-12T07:00:11.695Z,61.42
2018-11-12T07:01:15.271Z,60.81
2018-11-12T07:02:18.769Z,61.20
2018-11-12T07:03:22.163Z,61.16
2018-11-12T07:04:25.683Z,61.13
2018-11-12T07:05:29.874Z,61.63
2018-11-12T07:06:33.604Z,61.08
2018-11-12T07:07:37.032Z,60.50
2018-11-12T07:08:40.538Z,61.03
2018-11-12T07:09:44.072Z,60.73
2018-11-12T07:10:47.503Z,60.96
2018-11-12T07:11:50.920Z,60.98
2018-11-12T07:12:55.090Z,61.25
2018-11-12T07:13:58.605Z,60.59
2018-11-12T07:15:02.018Z,60.64
2018-11-12T07:16:05.477Z,61.08
2018-11-12T07:17:08.927Z,61.84
2018-11-12T07:18:12.310Z,63.21
2018-11-12T07:19:16.361Z,64.79
2018-11-12T07:20:21.477Z,65.92
2018-11-12T07:21:24.921Z,67.60
2018-11-12T07:22:28.337Z,67.05
2018-11-12T07:23:31.805Z,67.11
2018-11-12T07:24:35.411Z,66.96
2018-11-12T07:25:38.843Z,65.07
2018-11-12T07:26:42.298Z,65.21
2018-11-12T07:27:45.728Z,64.68
2018-11-12T07:28:49.141Z,64.64
2018-11-12T07:29:52.646Z,64.21
2018-11-12T07:30:56.214Z,64.00
2018-11-12T07:31:59.549Z,63.80
2018-11-12T07:33:03.014Z,63.71
2018-11-12T07:34:06.553Z,63.23
2018-11-12T07:35:11.862Z,63.14
2018-11-12T07:36:15.291Z,63.18
2018-11-12T07:37:18.708Z,62.61
2018-11-12T07:38:22.268Z,63.02
2018-11-12T07:39:25.678Z,62.52
2018-11-12T07:40:29.198Z,62.36
2018-11-12T07:41:32.657Z,63.17
2018-11-12T07:42:36.552Z,62.63
2018-11-12T07:43:40.076Z,62.89
2018-11-12T07:44:43.524Z,62.36
2018-11-12T07:45:47.138Z,62.78
2018-11-12T07:46:50.568Z,62.71
2018-11-12T07:47:54.793Z,62.84
2018-11-12T07:48:58.277Z,62.74
2018-11-12T07:50:01.674Z,62.63
2018-11-12T07:51:05.947Z,62.87
2018-11-12T07:52:09.418Z,62.80
2018-11-12T07:53:12.831Z,62.59
2018-11-12T07:54:16.371Z,63.00
2018-11-12T07:55:24.653Z,63.00
2018-11-12T07:56:28.254Z,63.16
2018-11-12T07:57:31.608Z,63.03
2018-11-12T07:58:35.080Z,62.94
2018-11-12T07:59:38.536Z,62.57
2018-11-12T08:00:42.053Z,62.69
2018-11-12T08:01:45.518Z,62.70
2018-11-12T08:02:49.877Z,63.08
2018-11-12T08:03:53.349Z,63.28
2018-11-12T08:04:56.796Z,63.29
2018-11-12T08:06:00.227Z,62.85
2018-11-12T08:07:03.715Z,63.14
2018-11-12T08:08:07.601Z,62.62
2018-11-12T08:09:12.279Z,63.17
2018-11-12T08:10:18.158Z,63.44
2018-11-12T08:11:21.538Z,62.94
2018-11-12T08:12:24.991Z,63.65
2018-11-12T08:13:28.388Z,62.89
2018-11-12T08:14:32.132Z,63.11
2018-11-12T08:15:35.599Z,62.92
2018-11-12T08:16:39.158Z,62.81
2018-11-12T08:17:43.036Z,63.42
2018-11-12T08:18:46.381Z,63.08
2018-11-12T08:19:49.796Z,63.67
2018-11-12T08:20:53.197Z,63.34
2018-11-12T08:21:56.763Z,63.51
2018-11-12T08:23:00.256Z,63.59
2018-11-12T08:24:03.795Z,63.44
2018-11-12T08:25:08.598Z,63.05
2018-11-12T08:26:12.027Z,63.31
2018-11-12T08:27:15.480Z,63.53
2018-11-12T08:28:18.875Z,63.43
2018-11-12T08:29:22.320Z,62.97
2018-11-12T08:30:27.033Z,63.58
2018-11-12T08:31:30.378Z,63.94
2018-11-12T08:32:33.901Z,63.81
2018-11-12T08:33:37.501Z,63.45
2018-11-12T08:34:40.967Z,63.77
2018-11-12T08:35:44.543Z,63.13
2018-11-12T08:36:48.118Z,63.23
2018-11-12T08:37:52.303Z,63.74
2018-11-12T08:38:55.803Z,64.03
2018-11-12T08:39:59.785Z,62.99
2018-11-12T08:41:03.255Z,63.77
2018-11-12T08:42:06.721Z,63.77
2018-11-12T08:43:10.162Z,63.89
2018-11-12T08:44:13.567Z,63.85
2018-11-12T08:45:17.177Z,63.73
2018-11-12T08:46:20.666Z,63.99
2018-11-12T08:47:24.145Z,64.06
2018-11-12T08:48:27.797Z,63.87
2018-11-12T08:49:31.160Z,63.37
2018-11-12T08:50:34.596Z,63.92
2018-11-12T08:51:38.007Z,63.79
2018-11-12T08:52:42.521Z,63.28
2018-11-12T08:53:45.991Z,63.48
2018-11-12T08:54:49.614Z,63.82
2018-11-12T08:55:52.988Z,63.47
2018-11-12T08:56:56.424Z,63.13
2018-11-12T08:58:01.317Z,62.92
2018-11-12T08:59:05.004Z,62.64
2018-11-12T09:00:10.491Z,63.64
2018-11-12T09:01:13.941Z,63.35
2018-11-12T09:02:17.478Z,63.47
2018-11-12T09:03:20.915Z,63.29
2018-11-12T09:04:24.400Z,63.07
2018-11-12T09:05:29.194Z,62.95
2018-11-12T09:06:32.617Z,62.67
2018-11-12T09:07:36.348Z,63.21
2018-11-12T09:08:40.043Z,63.31
2018-11-12T09:09:43.573Z,63.40
2018-11-12T09:10:47.022Z,63.10
2018-11-12T09:11:50.492Z,63.15
2018-11-12T09:12:53.997Z,63.02
2018-11-12T09:13:57.419Z,63.29
2018-11-12T09:15:00.904Z,62.86
2018-11-12T09:16:04.427Z,63.53
2018-11-12T09:17:07.918Z,63.50
2018-11-12T09:18:11.368Z,63.20
2018-11-12T09:19:14.979Z,63.18
2018-11-12T09:20:19.883Z,62.43
2018-11-12T09:21:23.310Z,62.87
2018-11-12T09:22:26.869Z,62.97
2018-11-12T09:23:30.272Z,62.83
2018-11-12T09:24:33.693Z,62.79
2018-11-12T09:25:37.144Z,63.46
2018-11-12T09:26:40.541Z,62.65
2018-11-12T09:27:44.258Z,63.47
2018-11-12T09:28:47.662Z,62.66
2018-11-12T09:29:51.114Z,63.43
2018-11-12T09:30:55.925Z,62.75
2018-11-12T09:31:58.177Z,63.25
2018-11-12T09:33:01.640Z,63.37
2018-11-12T09:34:05.459Z,63.29
2018-11-12T09:35:10.858Z,62.83
2018-11-12T09:36:14.347Z,63.36
2018-11-12T09:37:18.058Z,63.11
2018-11-12T09:39:24.829Z,63.63
2018-11-12T09:40:32.094Z,63.28
2018-11-12T09:41:35.554Z,63.58
2018-11-12T09:42:38.982Z,63.18
2018-11-12T09:43:42.401Z,63.27
2018-11-12T09:44:45.842Z,62.91
2018-11-12T09:45:49.363Z,63.02
2018-11-12T09:46:52.814Z,63.44
2018-11-12T09:47:56.320Z,63.14
2018-11-12T09:48:59.721Z,63.32
2018-11-12T09:50:03.344Z,63.40
2018-11-12T09:51:06.764Z,63.33
2018-11-12T09:52:10.252Z,63.14
2018-11-12T09:53:13.676Z,63.29
2018-11-12T09:54:17.240Z,63.78
2018-11-12T09:55:21.625Z,63.22
2018-11-12T09:56:25.300Z,63.09
2018-11-12T09:57:28.817Z,63.01
2018-11-12T09:58:32.245Z,63.64
2018-11-12T09:59:35.789Z,63.12
2018-11-12T10:00:40.425Z,63.10
2018-11-12T10:01:44.483Z,62.81
2018-11-12T10:02:48.717Z,63.07
2018-11-12T10:03:52.396Z,63.14
2018-11-12T10:04:56.771Z,62.68
2018-11-12T10:06:01.444Z,63.03
2018-11-12T10:07:05.536Z,63.19
2018-11-12T10:08:12.276Z,62.74
2018-11-12T10:09:16.023Z,63.08
2018-11-12T10:10:54.197Z,62.85
2018-11-12T10:11:56.828Z,63.05
2018-11-12T10:13:00.756Z,63.08
2018-11-12T10:14:04.289Z,63.25
2018-11-12T10:15:09.752Z,63.04
2018-11-12T10:16:13.907Z,62.27
2018-11-12T10:17:16.761Z,62.73
2018-11-12T10:18:17.029Z,63.17
2018-11-12T10:19:20.446Z,62.93
2018-11-12T10:20:23.877Z,62.65
2018-11-12T10:21:27.316Z,62.51
2018-11-12T10:22:30.726Z,62.27
2018-11-12T10:23:34.176Z,62.76
2018-11-12T10:24:38.136Z,62.94
2018-11-12T10:25:41.570Z,62.42
2018-11-12T10:26:45.087Z,62.78
2018-11-12T10:27:48.700Z,62.40
2018-11-12T10:28:52.122Z,62.54
2018-11-12T10:29:55.529Z,62.03
2018-11-12T10:30:58.954Z,62.72
2018-11-12T10:32:02.670Z,62.71
2018-11-12T10:33:06.295Z,62.61
2018-11-12T10:34:09.794Z,62.14
2018-11-12T10:35:13.272Z,62.14
2018-11-12T10:36:16.680Z,62.17
2018-11-12T10:37:20.225Z,62.71
2018-11-12T10:38:23.798Z,62.85
2018-11-12T10:39:27.370Z,62.29
2018-11-12T10:40:30.807Z,62.83
2018-11-12T10:41:34.371Z,62.50
2018-11-12T10:42:37.764Z,62.06
2018-11-12T10:43:41.324Z,62.77
2018-11-12T10:44:44.846Z,62.58
2018-11-12T10:45:48.421Z,62.23
2018-11-12T10:46:51.970Z,62.61
2018-11-12T10:47:55.601Z,62.64
2018-11-12T10:48:59.450Z,62.03
2018-11-12T10:50:02.939Z,62.20
2018-11-12T10:51:06.420Z,62.45
2018-11-12T10:52:09.921Z,62.44
2018-11-12T10:53:13.438Z,61.82
2018-11-12T10:54:16.890Z,61.68
2018-11-12T10:55:21.768Z,61.66
2018-11-12T10:56:25.117Z,62.34
2018-11-12T10:57:28.593Z,62.04
2018-11-12T10:58:32.098Z,61.91
2018-11-12T10:59:35.530Z,62.02
2018-11-12T11:00:44.307Z,62.30
2018-11-12T11:01:54.347Z,62.06
2018-11-12T11:03:04.614Z,61.40
2018-11-12T11:04:13.478Z,62.05
2018-11-12T11:05:16.867Z,61.73
2018-11-12T11:06:20.312Z,62.00
2018-11-12T11:07:23.899Z,61.30
2018-11-12T11:08:27.715Z,62.01
2018-11-12T11:09:31.112Z,61.85
2018-11-12T11:10:34.549Z,61.94
2018-11-12T11:11:38.078Z,62.17
2018-11-12T11:12:41.602Z,62.31
2018-11-12T11:13:45.067Z,61.83
2018-11-12T11:14:48.591Z,61.79
2018-11-12T11:15:52.028Z,62.19
2018-11-12T11:16:55.485Z,61.86
2018-11-12T11:17:59.002Z,62.26
2018-11-12T11:19:02.465Z,62.10
2018-11-12T11:20:06.064Z,62.55
2018-11-12T11:21:09.588Z,62.45
2018-11-12T11:22:13.019Z,62.13
2018-11-12T11:23:16.440Z,62.16
2018-11-12T11:24:19.832Z,62.79
2018-11-12T11:25:23.326Z,62.13
2018-11-12T11:26:26.777Z,62.89
2018-11-12T11:27:30.219Z,62.38
2018-11-12T11:28:33.632Z,62.19
2018-11-12T11:29:37.075Z,62.87
2018-11-12T11:30:40.545Z,62.44
2018-11-12T11:31:44.102Z,62.63
2018-11-12T11:32:47.676Z,62.40
2018-11-12T11:33:51.115Z,62.29
2018-11-12T11:34:54.859Z,62.60
2018-11-12T11:35:58.301Z,62.50
2018-11-12T11:37:01.760Z,62.92
2018-11-12T11:38:05.265Z,62.60
2018-11-12T11:39:09.631Z,62.88
2018-11-12T11:40:21.854Z,62.60
2018-11-12T11:41:25.342Z,62.25
2018-11-12T11:42:28.840Z,62.54
2018-11-12T11:43:32.292Z,62.42
2018-11-12T11:44:35.725Z,62.21
2018-11-12T11:45:39.167Z,61.77
2018-11-12T11:46:42.641Z,62.20
2018-11-12T11:47:47.139Z,62.36
2018-11-12T11:48:50.753Z,62.08
2018-11-12T11:49:54.257Z,62.07
2018-11-12T11:50:57.745Z,62.36
2018-11-12T11:52:01.214Z,61.79
2018-11-12T11:53:04.654Z,61.89
2018-11-12T11:54:08.077Z,62.18
2018-11-12T11:55:13.487Z,61.98
2018-11-12T11:56:16.937Z,62.24
2018-11-12T11:57:20.483Z,62.19
2018-11-12T11:58:23.903Z,61.80
2018-11-12T11:59:27.330Z,62.14
2018-11-12T12:00:31.131Z,61.72
2018-11-12T12:01:34.580Z,62.02
2018-11-12T12:02:38.023Z,61.13
2018-11-12T12:03:41.417Z,61.50
2018-11-12T12:04:44.928Z,61.55
2018-11-12T12:05:48.384Z,61.40
2018-11-12T12:06:51.881Z,61.32
2018-11-12T12:07:56.124Z,60.86
2018-11-12T12:08:59.545Z,61.69
2018-11-12T12:10:03.130Z,61.65
2018-11-12T12:11:06.572Z,61.50
2018-11-12T12:12:09.987Z,61.30
2018-11-12T12:13:13.495Z,61.49
2018-11-12T12:14:17.005Z,61.45
2018-11-12T12:15:21.346Z,61.51
2018-11-12T12:16:24.992Z,61.88
2018-11-12T12:17:28.706Z,62.19
2018-11-12T12:18:32.194Z,61.64
2018-11-12T12:19:35.682Z,62.03
2018-11-12T12:20:39.097Z,61.70
2018-11-12T12:21:42.484Z,61.94
2018-11-12T12:22:45.916Z,62.00
2018-11-12T12:23:49.534Z,62.07
2018-11-12T12:24:53.029Z,62.22
2018-11-12T12:25:56.469Z,62.57
2018-11-12T12:26:59.883Z,62.41
2018-11-12T12:28:03.538Z,62.04
2018-11-12T12:29:07.083Z,62.36
2018-11-12T12:30:14.292Z,62.01
2018-11-12T12:31:17.709Z,62.22
2018-11-12T12:32:21.157Z,62.64
2018-11-12T12:33:24.624Z,62.33
2018-11-12T12:34:28.077Z,62.40
2018-11-12T12:35:31.559Z,62.28
2018-11-12T12:36:35.086Z,62.07
2018-11-12T12:37:38.752Z,62.03
2018-11-12T12:38:42.193Z,62.20
2018-11-12T12:39:45.572Z,62.82
2018-11-12T12:40:49.036Z,62.47
2018-11-12T12:41:52.479Z,62.27
2018-11-12T12:42:56.100Z,62.81
2018-11-12T12:43:59.474Z,62.29
2018-11-12T12:45:03.251Z,62.28
2018-11-12T12:46:06.787Z,62.46
2018-11-12T12:47:10.307Z,62.59
2018-11-12T12:48:13.756Z,62.07
2018-11-12T12:49:17.162Z,62.53
2018-11-12T12:50:20.886Z,62.23
2018-11-12T12:51:24.475Z,62.02
2018-11-12T12:52:27.833Z,62.64
2018-11-12T12:53:31.362Z,62.57
2018-11-12T12:54:34.758Z,62.57
2018-11-12T12:55:38.341Z,62.04
2018-11-12T12:56:41.657Z,62.25
2018-11-12T12:57:45.784Z,62.48
2018-11-12T12:58:49.268Z,62.65
2018-11-12T12:59:52.782Z,62.67
2018-11-12T13:00:56.214Z,62.30
2018-11-12T13:02:00.025Z,62.39
2018-11-12T13:03:03.410Z,62.71
2018-11-12T13:04:06.794Z,62.32
2018-11-12T13:05:10.312Z,62.45
2018-11-12T13:06:13.761Z,62.33
2018-11-12T13:07:17.191Z,62.84
2018-11-12T13:08:20.602Z,62.47
2018-11-12T13:09:24.031Z,62.32
2018-11-12T13:10:27.467Z,62.45
2018-11-12T13:11:30.916Z,62.64
2018-11-12T13:12:34.356Z,62.76
2018-11-12T13:13:37.785Z,62.54
2018-11-12T13:14:41.293Z,62.40
2018-11-12T13:15:44.678Z,62.25
2018-11-12T13:16:48.050Z,62.77
2018-11-12T13:17:52.082Z,62.21
2018-11-12T13:18:55.522Z,62.35
2018-11-12T13:19:58.996Z,62.51
2018-11-12T13:21:02.438Z,62.76
2018-11-12T13:22:06.185Z,62.14
2018-11-12T13:23:09.639Z,62.87
2018-11-12T13:24:13.131Z,62.24
2018-11-12T13:25:16.569Z,62.52
2018-11-12T13:26:20.003Z,62.42
2018-11-12T13:27:23.471Z,62.71
2018-11-12T13:28:26.892Z,62.44
2018-11-12T13:29:30.472Z,62.75
2018-11-12T13:30:33.997Z,62.30
2018-11-12T13:31:37.447Z,62.63
2018-11-12T13:32:41.612Z,62.49
2018-11-12T13:33:45.069Z,62.13
2018-11-12T13:34:48.594Z,62.34
2018-11-12T13:35:51.998Z,62.16
2018-11-12T13:36:55.461Z,62.87
2018-11-12T13:37:58.888Z,62.09
2018-11-12T13:39:02.437Z,62.37
2018-11-12T13:40:09.379Z,62.79
2018-11-12T13:41:12.822Z,62.76
2018-11-12T13:42:16.220Z,62.82